Time;durP1;ratioP1;P1;durP2;ratioP2;P2;SDS_P1;SDS_P2;PMS_P1;PMS_P2;Temp;Humidity;BMP_temperature;BMP_pressure;BME280_temperature;BME280_humidity;BME280_pressure;Samples;Min_cycle;Max_cycle;Signal;HPM_P1;HPM_P2
2022/04/14 00:02:03;;;;;;;0.40;0.20;;;10.40;90.70;;;;;;5000442;28;20475;-80
2022/04/14 00:04:35;;;;;;;0.30;0.20;;;10.40;90.80;;;;;;5001733;28;20485;-84
2022/04/14 00:07:02;;;;;;;0.30;0.10;;;10.30;91.50;;;;;;5006321;28;20481;-81
2022/04/14 00:09:29;;;;;;;0.30;0.20;;;10.20;91.30;;;;;;5002765;28;20967;-83
2022/04/14 00:11:56;;;;;;;0.30;0.20;;;10.20;91.30;;;;;;5005158;28;20965;-82
2022/04/14 00:14:23;;;;;;;0.30;0.20;;;10.30;91.20;;;;;;5002635;28;20469;-83
2022/04/14 00:16:50;;;;;;;0.30;0.20;;;10.30;91.00;;;;;;5004467;28;20979;-83
2022/04/14 00:19:18;;;;;;;0.40;0.20;;;10.30;91.10;;;;;;5004561;28;20457;-81
2022/04/14 00:21:46;;;;;;;0.30;0.20;;;10.30;91.10;;;;;;5001835;28;20474;-81
2022/04/14 00:24:13;;;;;;;0.33;0.20;;;10.30;91.10;;;;;;5002345;28;20467;-81
2022/04/14 00:26:40;;;;;;;0.30;0.20;;;10.30;91.00;;;;;;5007480;28;20458;-84
2022/04/14 00:29:07;;;;;;;0.30;0.20;;;10.30;91.20;;;;;;5004447;28;20463;-83
2022/04/14 00:31:34;;;;;;;0.30;0.10;;;10.20;91.30;;;;;;5005451;28;20493;-81
2022/04/14 00:34:01;;;;;;;0.30;0.20;;;10.20;91.30;;;;;;4999947;28;20474;-81
2022/04/14 00:36:29;;;;;;;0.63;0.63;;;10.10;91.40;;;;;;5005456;28;20820;-80
2022/04/14 00:38:56;;;;;;;0.30;0.20;;;10.10;91.40;;;;;;5005324;28;20465;-81
2022/04/14 00:41:23;;;;;;;0.30;0.20;;;10.10;91.40;;;;;;5001582;28;20486;-81
2022/04/14 00:43:53;;;;;;;0.30;0.20;;;10.10;91.50;;;;;;5004311;28;20462;-81
2022/04/14 00:46:21;;;;;;;0.30;0.20;;;10.10;91.60;;;;;;5005477;28;20478;-80
2022/04/14 00:48:49;;;;;;;0.30;0.20;;;10.00;91.60;;;;;;5003114;28;20475;-82
2022/04/14 00:51:16;;;;;;;0.30;0.20;;;10.00;91.70;;;;;;5003414;28;20502;-80
2022/04/14 00:53:45;;;;;;;0.73;0.73;;;10.00;91.60;;;;;;5000203;28;20462;-80
2022/04/14 00:56:12;;;;;;;0.40;0.20;;;10.00;91.80;;;;;;5004211;28;20458;-81
2022/04/14 00:58:40;;;;;;;0.40;0.20;;;10.00;91.70;;;;;;5005296;28;20462;-79
2022/04/14 01:01:08;;;;;;;0.30;0.20;;;10.00;91.80;;;;;;5004411;28;20821;-82
2022/04/14 01:03:36;;;;;;;0.30;0.20;;;9.90;92.40;;;;;;5002983;28;20455;-80
2022/04/14 01:06:04;;;;;;;0.30;0.20;;;9.90;92.50;;;;;;5004050;28;20461;-81
2022/04/14 01:08:33;;;;;;;0.30;0.17;;;10.00;92.00;;;;;;5002358;28;20462;-82
2022/04/14 01:11:02;;;;;;;0.40;0.40;;;9.90;92.40;;;;;;5004280;28;21245;-81
2022/04/14 01:13:29;;;;;;;0.40;0.20;;;9.80;92.80;;;;;;5005668;28;20466;-80
2022/04/14 01:16:00;;;;;;;0.30;0.20;;;9.70;92.80;;;;;;5001627;28;20469;-80
2022/04/14 01:18:28;;;;;;;0.30;0.20;;;9.60;93.10;;;;;;5001211;28;20474;-81
2022/04/14 01:20:55;;;;;;;0.40;0.20;;;9.60;93.30;;;;;;5008203;28;20995;-80
2022/04/14 01:23:36;;;;;;;0.30;0.20;;;9.60;93.30;;;;;;5007356;28;20458;-80
2022/04/14 01:26:03;;;;;;;0.30;0.20;;;9.60;93.50;;;;;;5010800;28;20462;-80
2022/04/14 01:28:30;;;;;;;0.30;0.17;;;9.50;93.60;;;;;;5010159;28;20458;-81
2022/04/14 01:30:57;;;;;;;0.30;0.20;;;9.40;93.80;;;;;;5006797;28;21109;-81
2022/04/14 01:33:24;;;;;;;0.30;0.20;;;9.40;93.80;;;;;;5006623;28;20455;-81
2022/04/14 01:35:51;;;;;;;0.60;0.20;;;9.40;93.90;;;;;;5005921;28;20463;-82
2022/04/14 01:38:18;;;;;;;0.30;0.20;;;9.40;94.00;;;;;;5007399;28;20466;-83
2022/04/14 01:40:47;;;;;;;0.30;0.20;;;9.40;94.00;;;;;;4998997;28;20998;-81
2022/04/14 01:43:14;;;;;;;0.30;0.20;;;9.40;94.10;;;;;;5003118;28;20469;-80
2022/04/14 01:45:46;;;;;;;0.30;0.20;;;9.30;94.10;;;;;;5005867;28;20449;-83
2022/04/14 01:48:14;;;;;;;0.87;0.87;;;9.30;94.30;;;;;;5004088;28;20470;-82
2022/04/14 01:50:41;;;;;;;0.40;0.27;;;9.20;94.40;;;;;;5007661;28;20458;-83
2022/04/14 01:53:08;;;;;;;0.60;0.30;;;9.20;94.60;;;;;;5005167;28;20463;-81
2022/04/14 01:55:35;;;;;;;0.70;0.70;;;9.20;94.60;;;;;;5007880;28;20461;-80
2022/04/14 01:58:03;;;;;;;0.30;0.20;;;9.20;94.60;;;;;;5005473;28;20465;-83
2022/04/14 02:00:31;;;;;;;0.30;0.20;;;9.20;94.60;;;;;;5004703;28;20473;-80
2022/04/14 02:02:58;;;;;;;0.40;0.20;;;9.20;94.80;;;;;;5006998;28;20457;-79
2022/04/14 02:05:25;;;;;;;0.73;0.57;;;9.10;94.80;;;;;;5003808;28;20435;-81
2022/04/14 02:07:52;;;;;;;0.30;0.20;;;9.10;95.00;;;;;;5007313;28;20481;-80
2022/04/14 02:10:19;;;;;;;0.80;0.67;;;9.10;95.00;;;;;;5002737;28;21150;-81
2022/04/14 02:12:46;;;;;;;0.30;0.10;;;9.00;95.20;;;;;;5011921;28;20473;-81
2022/04/14 02:15:15;;;;;;;0.30;0.20;;;9.00;95.60;;;;;;5013955;28;20454;-79
2022/04/14 02:17:42;;;;;;;0.30;0.17;;;9.00;95.30;;;;;;5010395;28;20467;-80
2022/04/14 02:20:10;;;;;;;0.30;0.20;;;9.00;95.30;;;;;;5006102;28;20513;-80
2022/04/14 02:22:41;;;;;;;0.30;0.17;;;9.00;95.20;;;;;;5001781;28;20505;-85
2022/04/14 02:25:09;;;;;;;0.30;0.20;;;9.10;95.30;;;;;;5002362;28;21012;-84
2022/04/14 02:27:36;;;;;;;0.30;0.20;;;9.00;95.30;;;;;;5006909;28;20457;-81
2022/04/14 02:30:05;;;;;;;0.40;0.20;;;8.90;95.50;;;;;;5001172;28;20464;-82
2022/04/14 02:32:33;;;;;;;0.30;0.20;;;8.90;95.60;;;;;;5001101;28;20709;-83
2022/04/14 02:35:00;;;;;;;2.20;0.43;;;8.90;95.70;;;;;;5002485;28;20458;-83
2022/04/14 02:37:27;;;;;;;0.40;0.20;;;8.80;95.80;;;;;;5006593;28;20777;-82
2022/04/14 02:39:54;;;;;;;0.30;0.20;;;8.80;95.90;;;;;;5005640;28;20950;-81
2022/04/14 02:42:21;;;;;;;0.30;0.20;;;8.70;96.10;;;;;;5006540;28;20524;-84
2022/04/14 02:44:48;;;;;;;0.30;0.20;;;8.60;96.50;;;;;;5006444;28;20761;-82
2022/04/14 02:47:15;;;;;;;0.30;0.20;;;8.50;96.70;;;;;;5005321;28;20528;-82
2022/04/14 02:49:43;;;;;;;0.30;0.20;;;8.40;97.10;;;;;;5003480;28;20520;-81
2022/04/14 02:52:10;;;;;;;0.30;0.20;;;8.40;97.10;;;;;;5002548;28;20559;-81
2022/04/14 02:54:38;;;;;;;0.30;0.10;;;8.40;97.00;;;;;;5007929;28;20454;-82
2022/04/14 02:57:06;;;;;;;0.87;0.87;;;8.40;97.20;;;;;;5006847;28;21121;-84
2022/04/14 02:59:33;;;;;;;0.30;0.10;;;8.40;97.20;;;;;;5002135;28;20598;-82
2022/04/14 03:02:00;;;;;;;0.30;0.20;;;8.30;97.40;;;;;;5004180;28;20474;-80
2022/04/14 03:04:29;;;;;;;0.30;0.20;;;8.30;97.50;;;;;;5004806;28;20463;-84
2022/04/14 03:06:58;;;;;;;0.30;0.20;;;8.30;97.60;;;;;;5000911;28;20463;-81
2022/04/14 03:09:25;;;;;;;0.30;0.20;;;8.20;97.80;;;;;;5001045;28;20490;-84
2022/04/14 03:11:52;;;;;;;0.40;0.40;;;8.10;98.10;;;;;;5004038;28;20572;-84
2022/04/14 03:14:19;;;;;;;0.30;0.30;;;8.00;98.20;;;;;;5004131;28;20968;-83
2022/04/14 03:16:46;;;;;;;0.40;0.20;;;7.90;98.70;;;;;;5005512;28;20644;-80
2022/04/14 03:19:13;;;;;;;0.30;0.20;;;7.80;99.10;;;;;;5002539;28;20463;-84
2022/04/14 03:21:40;;;;;;;0.57;0.33;;;7.70;99.40;;;;;;5004381;28;20524;-81
2022/04/14 03:24:09;;;;;;;0.30;0.20;;;7.60;99.80;;;;;;4999700;28;20533;-80
2022/04/14 03:26:36;;;;;;;0.30;0.20;;;7.50;99.90;;;;;;5001908;28;20442;-80
2022/04/14 03:29:03;;;;;;;0.40;0.20;;;7.40;99.90;;;;;;5001855;28;20476;-80
2022/04/14 03:31:30;;;;;;;0.30;0.20;;;7.30;99.90;;;;;;5004774;28;20474;-80
2022/04/14 03:33:57;;;;;;;0.30;0.10;;;7.30;99.90;;;;;;5002683;28;20466;-81
2022/04/14 03:36:24;;;;;;;0.30;0.20;;;7.20;99.90;;;;;;5003403;28;20497;-81
2022/04/14 03:38:51;;;;;;;0.30;0.20;;;7.30;99.90;;;;;;4998951;28;20528;-80
2022/04/14 03:41:19;;;;;;;0.30;0.10;;;7.30;99.90;;;;;;5000362;28;20463;-80
2022/04/14 03:43:46;;;;;;;0.30;0.20;;;7.20;99.90;;;;;;5002449;28;21040;-80
2022/04/14 03:46:15;;;;;;;0.50;0.47;;;7.10;99.90;;;;;;5003514;28;21138;-83
2022/04/14 03:48:42;;;;;;;0.60;0.40;;;7.00;99.90;;;;;;5002892;28;20517;-81
2022/04/14 03:51:10;;;;;;;0.50;0.50;;;6.80;99.90;;;;;;5003401;28;20455;-84
2022/04/14 03:53:37;;;;;;;0.40;0.30;;;6.70;99.90;;;;;;5000275;28;20467;-80
2022/04/14 03:56:05;;;;;;;0.30;0.20;;;6.70;99.90;;;;;;5004640;28;20455;-80
2022/04/14 03:58:33;;;;;;;0.40;0.20;;;6.40;99.90;;;;;;4998040;28;20464;-80
2022/04/14 04:01:00;;;;;;;0.40;0.30;;;6.20;99.90;;;;;;5005354;28;20468;-82
2022/04/14 04:03:27;;;;;;;0.40;0.30;;;6.10;99.90;;;;;;5004615;28;20470;-82
2022/04/14 04:05:54;;;;;;;0.30;0.20;;;6.10;99.90;;;;;;5005342;28;20547;-80
2022/04/14 04:08:22;;;;;;;0.30;0.20;;;6.10;99.90;;;;;;5003106;28;20909;-80
2022/04/14 04:10:49;;;;;;;0.70;0.20;;;6.20;99.90;;;;;;4997144;28;20466;-80
2022/04/14 04:13:16;;;;;;;0.30;0.10;;;6.10;99.90;;;;;;5005005;28;20519;-82
2022/04/14 04:15:45;;;;;;;0.30;0.10;;;6.00;99.90;;;;;;5000622;28;20956;-80
2022/04/14 04:18:12;;;;;;;0.30;0.20;;;6.10;99.90;;;;;;5005540;28;20469;-83
2022/04/14 04:20:39;;;;;;;0.30;0.20;;;6.20;99.90;;;;;;5006266;28;20544;-81
2022/04/14 04:23:06;;;;;;;0.30;0.10;;;6.20;99.90;;;;;;4998965;28;20467;-80
2022/04/14 04:25:33;;;;;;;0.30;0.10;;;6.20;99.90;;;;;;5003927;28;20542;-80
2022/04/14 04:28:00;;;;;;;0.30;0.13;;;6.20;99.90;;;;;;5006334;28;20450;-80
2022/04/14 04:30:27;;;;;;;0.40;0.30;;;6.20;99.90;;;;;;5003555;28;20447;-80
2022/04/14 04:32:56;;;;;;;0.77;0.70;;;6.30;99.90;;;;;;5004293;28;20548;-84
2022/04/14 04:35:23;;;;;;;0.30;0.20;;;6.30;99.90;;;;;;5002642;28;20976;-82
2022/04/14 04:37:50;;;;;;;0.30;0.10;;;6.40;99.90;;;;;;4998264;28;20542;-80
2022/04/14 04:40:18;;;;;;;0.30;0.20;;;6.30;99.90;;;;;;5005742;28;20970;-80
2022/04/14 04:42:45;;;;;;;0.30;0.20;;;6.40;99.90;;;;;;5002895;28;20749;-81
2022/04/14 04:45:12;;;;;;;0.30;0.20;;;6.40;99.90;;;;;;5000649;28;20466;-80
2022/04/14 04:47:39;;;;;;;0.30;0.20;;;6.50;99.90;;;;;;5005409;28;21004;-80
2022/04/14 04:50:08;;;;;;;0.30;0.20;;;6.60;99.90;;;;;;5006737;28;20458;-81
2022/04/14 04:52:36;;;;;;;0.30;0.20;;;6.70;99.90;;;;;;5009084;28;20478;-80
2022/04/14 04:55:03;;;;;;;0.40;0.30;;;6.70;99.90;;;;;;5002196;28;20535;-82
2022/04/14 04:57:30;;;;;;;0.40;0.20;;;6.80;99.90;;;;;;5009314;28;20993;-82
2022/04/14 04:59:57;;;;;;;0.30;0.20;;;6.80;99.90;;;;;;5015000;28;20471;-81
2022/04/14 05:02:24;;;;;;;0.30;0.20;;;7.00;99.90;;;;;;5006473;28;20520;-82
2022/04/14 05:04:52;;;;;;;0.30;0.20;;;7.10;99.90;;;;;;5008757;28;20474;-83
2022/04/14 05:07:21;;;;;;;0.30;0.20;;;7.20;99.90;;;;;;4999398;28;20472;-82
2022/04/14 05:09:48;;;;;;;0.57;0.43;;;7.10;99.90;;;;;;5006593;28;20469;-82
2022/04/14 05:12:15;;;;;;;0.40;0.30;;;7.00;99.90;;;;;;4998762;28;20561;-84
2022/04/14 05:14:42;;;;;;;0.30;0.20;;;7.00;99.90;;;;;;4992764;28;20814;-82
2022/04/14 05:17:09;;;;;;;0.30;0.20;;;7.10;99.90;;;;;;4994014;28;20470;-82
2022/04/14 05:19:36;;;;;;;0.50;0.50;;;7.20;99.90;;;;;;4998595;28;20463;-82
2022/04/14 05:22:03;;;;;;;0.30;0.10;;;7.30;99.90;;;;;;5003123;28;20458;-82
2022/04/14 05:24:32;;;;;;;0.30;0.20;;;7.30;99.90;;;;;;4995814;28;20459;-86
2022/04/14 05:26:59;;;;;;;4.57;1.10;;;7.30;99.90;;;;;;4998195;28;20457;-82
2022/04/14 05:29:27;;;;;;;0.50;0.50;;;7.50;99.90;;;;;;4999706;28;20878;-82
2022/04/14 05:31:54;;;;;;;0.30;0.20;;;7.60;99.90;;;;;;4993689;28;20515;-84
2022/04/14 05:34:21;;;;;;;0.30;0.10;;;7.60;99.90;;;;;;4997721;28;20996;-82
2022/04/14 05:36:48;;;;;;;1.33;1.03;;;7.70;99.90;;;;;;4998964;28;21352;-83
2022/04/14 05:39:16;;;;;;;0.40;0.40;;;7.60;99.90;;;;;;4991532;28;20475;-82
2022/04/14 05:41:44;;;;;;;0.30;0.10;;;7.60;99.90;;;;;;4996235;28;20540;-82
2022/04/14 05:44:11;;;;;;;0.53;0.53;;;7.70;99.90;;;;;;4997055;28;20978;-83
2022/04/14 05:46:38;;;;;;;0.30;0.10;;;7.90;99.90;;;;;;4997945;28;20470;-82
2022/04/14 05:49:05;;;;;;;0.53;0.53;;;8.00;99.90;;;;;;5000160;28;20458;-82
2022/04/14 05:51:32;;;;;;;0.30;0.20;;;8.10;99.90;;;;;;4994733;28;20464;-83
2022/04/14 05:53:59;;;;;;;0.30;0.20;;;8.20;99.90;;;;;;4992137;28;20479;-82
2022/04/14 05:56:26;;;;;;;0.30;0.30;;;8.40;99.90;;;;;;4997224;28;20467;-82
2022/04/14 05:58:55;;;;;;;0.30;0.20;;;8.60;99.90;;;;;;4995684;28;20471;-85
2022/04/14 06:01:22;;;;;;;0.40;0.23;;;8.70;99.90;;;;;;4992621;28;20469;-86
2022/04/14 06:03:49;;;;;;;0.30;0.20;;;8.90;99.90;;;;;;4995088;28;20463;-88
2022/04/14 06:06:16;;;;;;;0.30;0.20;;;9.00;99.90;;;;;;4997057;28;21236;-82
2022/04/14 06:08:43;;;;;;;0.40;0.30;;;9.10;99.90;;;;;;4993534;28;20454;-81
2022/04/14 06:11:11;;;;;;;0.73;0.73;;;9.20;99.90;;;;;;5001341;28;20465;-88
2022/04/14 06:13:38;;;;;;;1.00;0.87;;;9.40;99.90;;;;;;5003583;28;20565;-84
2022/04/14 06:16:07;;;;;;;0.30;0.17;;;9.70;99.90;;;;;;5012016;28;20525;-86
2022/04/14 06:18:34;;;;;;;0.43;0.43;;;9.90;99.90;;;;;;5001239;28;20466;-83
2022/04/14 06:21:01;;;;;;;0.30;0.20;;;9.90;99.90;;;;;;5013134;28;20505;-84
2022/04/14 06:23:28;;;;;;;0.37;0.20;;;10.10;99.90;;;;;;5016330;28;20897;-83
2022/04/14 06:25:55;;;;;;;0.30;0.20;;;10.30;99.90;;;;;;4999223;28;20990;-83
2022/04/14 06:28:22;;;;;;;0.43;0.40;;;10.40;99.90;;;;;;4997472;28;20462;-87
2022/04/14 06:30:50;;;;;;;0.30;0.20;;;10.60;99.90;;;;;;5003070;28;20485;-86
2022/04/14 06:33:20;;;;;;;0.30;0.20;;;10.70;99.90;;;;;;5005238;28;20493;-85
2022/04/14 06:35:48;;;;;;;0.30;0.20;;;10.80;99.90;;;;;;5000306;28;20526;-83
2022/04/14 06:38:15;;;;;;;0.30;0.20;;;11.00;99.90;;;;;;4999399;28;21167;-83
2022/04/14 06:40:42;;;;;;;1.47;1.13;;;11.00;99.90;;;;;;5001342;28;21571;-83
2022/04/14 06:43:09;;;;;;;0.30;0.20;;;11.00;99.90;;;;;;5003410;28;20470;-83
2022/04/14 06:45:36;;;;;;;1.07;1.07;;;11.20;99.90;;;;;;5000308;28;20522;-84
2022/04/14 06:48:03;;;;;;;0.30;0.20;;;11.20;99.90;;;;;;5004485;28;20529;-84
2022/04/14 06:50:31;;;;;;;0.30;0.20;;;11.40;99.90;;;;;;4991423;28;20439;-84
2022/04/14 06:52:58;;;;;;;0.40;0.30;;;11.70;99.90;;;;;;5006102;28;21301;-85
2022/04/14 06:55:25;;;;;;;0.30;0.20;;;11.90;99.90;;;;;;5000929;28;20946;-84
2022/04/14 06:57:52;;;;;;;0.70;0.70;;;12.00;99.90;;;;;;4997659;28;20542;-85
2022/04/14 07:00:21;;;;;;;0.30;0.20;;;12.20;99.90;;;;;;4998016;28;20453;-85
2022/04/14 07:02:48;;;;;;;0.33;0.20;;;12.20;99.90;;;;;;5001646;28;20474;-83
2022/04/14 07:05:16;;;;;;;0.30;0.20;;;12.20;99.90;;;;;;5011455;28;20535;-84
2022/04/14 07:07:45;;;;;;;0.43;0.43;;;12.40;99.90;;;;;;5012580;28;21137;-88
2022/04/14 07:10:13;;;;;;;0.40;0.20;;;12.70;99.70;;;;;;5008566;28;20492;-81
2022/04/14 07:12:41;;;;;;;1.33;0.93;;;12.90;99.60;;;;;;5007541;28;20761;-82
2022/04/14 07:15:09;;;;;;;0.40;0.40;;;13.10;99.40;;;;;;5006542;28;20517;-84
2022/04/14 07:17:37;;;;;;;0.30;0.20;;;13.10;98.20;;;;;;5004439;28;21236;-84
2022/04/14 07:20:05;;;;;;;0.40;0.40;;;13.10;98.30;;;;;;5006425;28;20520;-81
2022/04/14 07:22:32;;;;;;;0.57;0.43;;;13.30;99.30;;;;;;5008318;28;20464;-83
2022/04/14 07:25:00;;;;;;;0.50;0.50;;;13.30;97.60;;;;;;5014446;28;20511;-82
2022/04/14 07:27:27;;;;;;;0.40;0.30;;;13.30;98.20;;;;;;5005866;28;20514;-82
2022/04/14 07:29:54;;;;;;;0.40;0.30;;;13.40;98.70;;;;;;5008156;28;20453;-81
2022/04/14 07:32:21;;;;;;;0.70;0.43;;;13.30;97.10;;;;;;4992032;28;21501;-82
2022/04/14 07:34:48;;;;;;;1.50;0.63;;;13.50;97.50;;;;;;4999043;28;20466;-85
2022/04/14 07:37:15;;;;;;;0.40;0.30;;;13.70;97.20;;;;;;4997293;28;20848;-84
2022/04/14 07:39:42;;;;;;;1.47;0.40;;;13.70;96.60;;;;;;5012474;28;20945;-86
2022/04/14 07:42:11;;;;;;;0.40;0.40;;;14.00;97.10;;;;;;4998723;28;21074;-86
2022/04/14 07:44:38;;;;;;;0.63;0.57;;;14.00;96.10;;;;;;5002740;28;20477;-84
2022/04/14 07:47:05;;;;;;;0.30;0.30;;;14.00;97.20;;;;;;5005581;28;21141;-84
2022/04/14 07:49:32;;;;;;;0.40;0.30;;;14.20;96.00;;;;;;4996646;28;20497;-84
2022/04/14 07:51:59;;;;;;;0.50;0.50;;;14.40;96.30;;;;;;4999460;28;20493;-82
2022/04/14 07:54:26;;;;;;;0.50;0.30;;;14.40;95.90;;;;;;4993670;28;20608;-82
2022/04/14 07:56:53;;;;;;;0.33;0.27;;;14.50;97.20;;;;;;4996859;28;20462;-82
2022/04/14 07:59:22;;;;;;;0.50;0.50;;;14.50;95.90;;;;;;4999567;28;20490;-84
2022/04/14 08:01:49;;;;;;;0.30;0.20;;;14.50;96.20;;;;;;4989518;28;20494;-84
2022/04/14 08:04:16;;;;;;;0.40;0.40;;;14.50;95.30;;;;;;4996676;28;20478;-84
2022/04/14 08:06:43;;;;;;;2.40;0.50;;;14.70;95.00;;;;;;5007922;28;20623;-86
2022/04/14 08:09:09;;;;;;;1.90;0.40;;;15.00;94.20;;;;;;4994638;28;20951;-82
2022/04/14 08:11:36;;;;;;;0.70;0.70;;;15.00;93.80;;;;;;5003026;28;20556;-85
2022/04/14 08:14:04;;;;;;;0.40;0.40;;;15.00;94.20;;;;;;4995353;28;20874;-82
2022/04/14 08:16:32;;;;;;;0.83;0.83;;;15.20;95.80;;;;;;4994595;28;20489;-85
2022/04/14 08:18:59;;;;;;;0.80;0.53;;;15.30;95.00;;;;;;5001944;28;20467;-87
2022/04/14 08:21:26;;;;;;;0.40;0.30;;;15.50;94.50;;;;;;4999619;28;20541;-84
2022/04/14 08:23:53;;;;;;;0.70;0.47;;;15.40;93.20;;;;;;5007711;28;20459;-88
2022/04/14 08:26:21;;;;;;;0.40;0.30;;;15.60;94.60;;;;;;5000419;28;20869;-88
2022/04/14 08:28:48;;;;;;;0.80;0.30;;;15.80;93.30;;;;;;5003471;28;20478;-83
2022/04/14 08:31:16;;;;;;;0.40;0.40;;;15.80;93.60;;;;;;5008117;28;21063;-84
2022/04/14 08:33:45;;;;;;;0.40;0.20;;;16.00;93.80;;;;;;5010058;28;20482;-84
2022/04/14 08:36:15;;;;;;;0.40;0.30;;;15.80;92.90;;;;;;5009265;28;20463;-83
2022/04/14 08:38:43;;;;;;;0.40;0.40;;;16.00;94.00;;;;;;5007355;28;20459;-85
2022/04/14 08:41:11;;;;;;;1.03;1.03;;;16.10;92.80;;;;;;5001345;28;20467;-84
2022/04/14 08:43:43;;;;;;;1.60;1.50;;;15.90;92.60;;;;;;5008953;28;21164;-84
2022/04/14 08:46:11;;;;;;;0.50;0.50;;;16.00;93.00;;;;;;5002655;28;20486;-83
2022/04/14 08:48:43;;;;;;;0.73;0.73;;;16.10;94.30;;;;;;5003833;28;20548;-86
2022/04/14 08:51:14;;;;;;;0.83;0.53;;;16.10;93.00;;;;;;5000145;28;20882;-83
2022/04/14 08:53:42;;;;;;;1.17;0.90;;;16.40;93.50;;;;;;4996140;28;21554;-85
2022/04/14 08:56:10;;;;;;;0.40;0.40;;;16.60;92.60;;;;;;4998515;28;20562;-84
2022/04/14 08:58:37;;;;;;;1.07;0.97;;;16.50;92.50;;;;;;5006051;28;20565;-82
2022/04/14 09:01:05;;;;;;;0.83;0.57;;;16.60;91.70;;;;;;5003586;28;20481;-81
2022/04/14 09:03:32;;;;;;;0.60;0.60;;;16.80;92.70;;;;;;5003224;28;20481;-82
2022/04/14 09:05:59;;;;;;;0.50;0.50;;;17.10;92.60;;;;;;5002173;28;20945;-80
2022/04/14 09:08:28;;;;;;;0.90;0.90;;;17.40;92.70;;;;;;5009102;28;20505;-83
2022/04/14 09:10:55;;;;;;;0.60;0.50;;;17.20;90.30;;;;;;5002020;28;20470;-85
2022/04/14 09:13:22;;;;;;;0.70;0.70;;;17.00;91.20;;;;;;5008083;28;20495;-85
2022/04/14 09:15:49;;;;;;;0.70;0.40;;;17.10;91.60;;;;;;5003751;28;20464;-82
2022/04/14 09:18:17;;;;;;;0.50;0.50;;;17.10;90.70;;;;;;5007246;28;20823;-82
2022/04/14 09:20:48;;;;;;;0.40;0.40;;;17.20;90.60;;;;;;5003594;28;20581;-83
2022/04/14 09:23:26;;;;;;;1.07;0.43;;;17.40;90.30;;;;;;5004752;28;20510;-84
2022/04/14 09:26:11;;;;;;;0.63;0.53;;;17.90;91.60;;;;;;4998955;28;21030;-82
2022/04/14 09:28:39;;;;;;;2.13;0.40;;;17.80;90.60;;;;;;5009055;28;21016;-82
2022/04/14 09:31:08;;;;;;;2.87;1.27;;;17.90;89.10;;;;;;5012513;28;21066;-83
2022/04/14 09:33:37;;;;;;;0.57;0.57;;;17.80;90.00;;;;;;5001682;28;20630;-82
2022/04/14 09:36:13;;;;;;;1.27;1.17;;;17.70;88.90;;;;;;5005644;28;20540;-82
2022/04/14 09:38:55;;;;;;;1.20;1.20;;;17.80;90.00;;;;;;4997813;28;20546;-84
2022/04/14 09:41:32;;;;;;;0.97;0.70;;;17.60;88.50;;;;;;5005969;28;21019;-82
2022/04/14 09:44:00;;;;;;;0.87;0.87;;;17.80;90.20;;;;;;5003884;28;20477;-84
2022/04/14 09:46:28;;;;;;;1.53;0.80;;;17.90;90.30;;;;;;5003372;28;21119;-86
2022/04/14 09:49:00;;;;;;;1.33;1.23;;;18.20;90.00;;;;;;5013635;28;20983;-83
2022/04/14 09:51:27;;;;;;;0.97;0.80;;;18.50;92.10;;;;;;5011576;28;20462;-83
2022/04/14 09:54:03;;;;;;;1.70;0.73;;;18.70;91.90;;;;;;5008310;28;21095;-82
2022/04/14 09:56:44;;;;;;;0.80;0.80;;;18.60;89.00;;;;;;5009319;28;20456;-82
2022/04/14 09:59:13;;;;;;;1.10;0.83;;;18.50;89.80;;;;;;5006485;28;20469;-81
2022/04/14 10:01:40;;;;;;;0.80;0.60;;;18.60;87.10;;;;;;5008259;28;20506;-82
2022/04/14 10:04:10;;;;;;;1.57;1.47;;;18.60;87.80;;;;;;5003994;28;20996;-86
2022/04/14 10:06:37;;;;;;;0.50;0.50;;;18.60;88.50;;;;;;5005898;28;20477;-82
2022/04/14 10:09:04;;;;;;;0.60;0.60;;;18.50;87.20;;;;;;5013683;28;20519;-83
2022/04/14 10:11:34;;;;;;;0.83;0.80;;;18.80;88.50;;;;;;5019876;28;20932;-83
2022/04/14 10:14:13;;;;;;;0.63;0.60;;;19.00;87.70;;;;;;5009320;28;20487;-84
2022/04/14 10:16:41;;;;;;;0.50;0.50;;;19.20;86.20;;;;;;5009982;28;20617;-85
2022/04/14 10:19:09;;;;;;;1.00;0.83;;;19.50;87.70;;;;;;5017126;28;20491;-85
2022/04/14 10:21:36;;;;;;;0.43;0.43;;;19.10;86.80;;;;;;5007401;28;20491;-85
2022/04/14 10:24:05;;;;;;;0.90;0.90;;;19.10;87.10;;;;;;4999058;28;20493;-87
2022/04/14 10:26:35;;;;;;;0.40;0.30;;;19.40;87.40;;;;;;5008010;28;20467;-84
2022/04/14 10:29:03;;;;;;;0.90;0.90;;;19.50;83.80;;;;;;5008251;28;20470;-86
2022/04/14 10:31:32;;;;;;;1.43;1.33;;;19.60;87.80;;;;;;5009050;28;20845;-85
2022/04/14 10:34:04;;;;;;;0.40;0.40;;;19.80;82.60;;;;;;5016450;28;21409;-84
2022/04/14 10:36:32;;;;;;;1.80;0.80;;;19.70;84.50;;;;;;5007778;28;20477;-84
2022/04/14 10:39:00;;;;;;;0.60;0.60;;;19.60;82.00;;;;;;5003989;28;20788;-87
2022/04/14 10:41:30;;;;;;;2.20;0.57;;;19.60;83.10;;;;;;5006723;28;20466;-83
2022/04/14 10:44:01;;;;;;;1.23;1.07;;;19.70;83.60;;;;;;5006185;28;20471;-84
2022/04/14 10:46:33;;;;;;;0.70;0.70;;;20.00;85.10;;;;;;5001513;28;20477;-86
2022/04/14 10:49:14;;;;;;;2.30;1.03;;;20.00;83.40;;;;;;5005840;28;20867;-86
2022/04/14 10:51:43;;;;;;;0.53;0.40;;;20.10;85.90;;;;;;5009015;28;20499;-86
2022/04/14 10:54:12;;;;;;;1.80;1.13;;;20.10;83.80;;;;;;5000095;28;20628;-85
2022/04/14 10:56:50;;;;;;;2.10;1.27;;;20.20;82.50;;;;;;4997669;28;20537;-85
2022/04/14 10:59:23;;;;;;;1.73;0.73;;;20.10;83.90;;;;;;4994944;28;20471;-84
2022/04/14 11:02:04;;;;;;;1.53;1.00;;;20.00;81.70;;;;;;5005935;28;21130;-88
2022/04/14 11:04:37;;;;;;;0.77;0.77;;;19.90;83.30;;;;;;5008312;28;20591;-82
2022/04/14 11:07:11;;;;;;;0.70;0.70;;;20.20;84.40;;;;;;5002928;28;20527;-85
2022/04/14 11:09:53;;;;;;;0.53;0.40;;;20.40;84.00;;;;;;4997915;28;20510;-83
2022/04/14 11:12:22;;;;;;;0.60;0.40;;;20.50;80.20;;;;;;4996429;28;20946;-83
2022/04/14 11:14:52;;;;;;;1.37;1.07;;;20.70;82.70;;;;;;4997164;28;20592;-83
2022/04/14 11:18:00;;;;;;;1.67;0.77;;;20.70;81.40;;;;;;4996549;28;20504;-84
2022/04/14 11:20:54;;;;;;;1.87;1.27;;;20.80;80.90;;;;;;4997372;28;20525;-83
2022/04/14 11:23:26;;;;;;;1.00;1.00;;;20.70;78.10;;;;;;5000134;28;20977;-83
2022/04/14 11:25:54;;;;;;;2.13;1.53;;;20.70;76.00;;;;;;4994219;28;20951;-82
2022/04/14 11:28:24;;;;;;;0.90;0.80;;;20.90;77.70;;;;;;4999719;28;20890;-83
2022/04/14 11:30:52;;;;;;;1.03;0.87;;;21.00;78.70;;;;;;5002519;28;20457;-84
2022/04/14 11:33:27;;;;;;;1.40;1.30;;;21.10;75.20;;;;;;5004529;28;20490;-85
2022/04/14 11:36:08;;;;;;;0.90;0.77;;;21.00;77.60;;;;;;5002266;28;20748;-82
2022/04/14 11:38:56;;;;;;;1.47;1.30;;;21.00;77.90;;;;;;4995578;28;20509;-85
2022/04/14 11:41:46;;;;;;;0.50;0.50;;;21.30;82.10;;;;;;4989452;28;20799;-85
2022/04/14 11:44:14;;;;;;;1.23;1.23;;;21.40;79.00;;;;;;4992057;28;20489;-84
2022/04/14 11:46:43;;;;;;;2.03;0.80;;;21.50;78.10;;;;;;4999673;28;20543;-84
2022/04/14 11:49:13;;;;;;;0.83;0.83;;;21.20;77.10;;;;;;5003106;28;20466;-84
2022/04/14 11:51:46;;;;;;;0.80;0.77;;;21.50;79.80;;;;;;4998324;28;20907;-84
2022/04/14 11:54:13;;;;;;;0.90;0.80;;;21.60;77.80;;;;;;4998610;28;20562;-87
2022/04/14 11:56:40;;;;;;;1.73;1.27;;;21.20;76.90;;;;;;4993341;28;20509;-84
2022/04/14 11:59:09;;;;;;;0.83;0.83;;;21.40;77.30;;;;;;4996472;28;20471;-83
2022/04/14 12:01:50;;;;;;;0.80;0.70;;;21.60;78.00;;;;;;4989017;28;20471;-83
2022/04/14 12:04:17;;;;;;;3.23;0.53;;;22.00;78.90;;;;;;4995277;28;20468;-84
2022/04/14 12:06:56;;;;;;;0.97;0.87;;;21.90;73.50;;;;;;4998590;28;20469;-85
2022/04/14 12:09:25;;;;;;;1.60;0.80;;;21.90;75.40;;;;;;5002061;28;20506;-85
2022/04/14 12:11:52;;;;;;;2.17;1.47;;;22.10;76.90;;;;;;4995792;28;21071;-86
2022/04/14 12:14:19;;;;;;;0.73;0.60;;;22.10;74.70;;;;;;4997741;28;20581;-86
2022/04/14 12:16:50;;;;;;;0.90;0.70;;;21.90;75.60;;;;;;4991529;28;20513;-84
2022/04/14 12:19:18;;;;;;;0.70;0.70;;;22.10;73.90;;;;;;4993507;28;21470;-83
2022/04/14 12:22:01;;;;;;;1.97;1.20;;;22.10;76.60;;;;;;4998429;28;20494;-84
2022/04/14 12:24:29;;;;;;;0.63;0.63;;;22.10;70.90;;;;;;4991187;28;20541;-85
2022/04/14 12:26:57;;;;;;;1.30;1.17;;;22.20;71.00;;;;;;5007074;28;20549;-84
2022/04/14 12:29:25;;;;;;;0.80;0.80;;;22.20;69.60;;;;;;5007195;28;20452;-83
2022/04/14 12:31:56;;;;;;;0.60;0.60;;;22.10;72.00;;;;;;5002298;28;20521;-84
2022/04/14 12:34:23;;;;;;;0.97;0.87;;;22.10;73.80;;;;;;5001778;28;20475;-82
2022/04/14 12:36:50;;;;;;;0.50;0.40;;;21.80;73.00;;;;;;5000561;28;20517;-83
2022/04/14 12:39:21;;;;;;;0.63;0.63;;;21.60;76.00;;;;;;5002072;28;20462;-84
2022/04/14 12:41:49;;;;;;;0.83;0.57;;;21.70;75.40;;;;;;4996693;28;20561;-84
2022/04/14 12:44:20;;;;;;;0.50;0.50;;;21.80;72.90;;;;;;4998978;28;20462;-84
2022/04/14 12:46:50;;;;;;;0.50;0.40;;;22.00;75.60;;;;;;5000173;28;20467;-83
2022/04/14 12:49:20;;;;;;;1.60;0.90;;;22.10;76.70;;;;;;4996758;28;21328;-82
2022/04/14 12:51:56;;;;;;;2.70;1.97;;;22.10;74.00;;;;;;5001466;28;20495;-85
2022/04/14 12:54:25;;;;;;;5.13;0.80;;;22.30;73.10;;;;;;5002891;28;20568;-82
2022/04/14 12:57:01;;;;;;;0.50;0.40;;;22.50;72.60;;;;;;5004043;28;20524;-83
2022/04/14 12:59:29;;;;;;;1.00;0.70;;;22.30;70.50;;;;;;5004431;28;20454;-85